Time;durP1;ratioP1;P1;durP2;ratioP2;P2;SDS_P1;SDS_P2;PMS_P1;PMS_P2;Temp;Humidity;BMP_temperature;BMP_pressure;BME280_temperature;BME280_humidity;BME280_pressure;Samples;Min_cycle;Max_cycle;Signal;HPM_P1;HPM_P2
2021/09/23 00:08:00;;;;;;;5.95;3.80;;;;;;;9.71;63.64;100747.25;10395118;28;20108;-64
2021/09/23 00:13:04;;;;;;;9.73;4.40;;;;;;;9.70;64.06;100742.91;10395893;28;20065;-64
2021/09/23 00:18:15;;;;;;;24.48;5.53;;;;;;;9.74;63.83;100734.88;10395569;28;20724;-64
2021/09/23 00:23:17;;;;;;;25.55;5.80;;;;;;;9.67;63.71;100738.66;10395599;28;20140;-64
2021/09/23 00:28:19;;;;;;;5.63;3.78;;;;;;;9.61;63.71;100726.69;10426835;28;20451;-64
2021/09/23 00:33:21;;;;;;;6.57;3.70;;;;;;;9.60;63.76;100711.09;10396511;28;20433;-64
2021/09/23 00:38:23;;;;;;;4.60;3.50;;;;;;;9.57;63.71;100706.00;10394792;28;20066;-64
2021/09/23 00:43:24;;;;;;;140.00;6.85;;;;;;;9.53;63.81;100704.44;10392719;28;20146;-64
2021/09/23 00:48:26;;;;;;;390.50;11.35;;;;;;;9.42;63.71;100694.44;10395163;28;20186;-64
2021/09/23 00:53:28;;;;;;;26.63;4.80;;;;;;;9.27;63.98;100696.88;10393978;28;20355;-64
2021/09/23 00:58:30;;;;;;;167.50;7.60;;;;;;;9.29;64.07;100692.44;10394019;28;20104;-64
2021/09/23 01:03:31;;;;;;;56.70;5.50;;;;;;;9.22;64.36;100691.84;10394232;28;20494;-64
2021/09/23 01:08:33;;;;;;;43.28;5.55;;;;;;;9.24;64.18;100679.56;10394029;28;20056;-64
2021/09/23 01:13:36;;;;;;;206.88;7.57;;;;;;;8.96;64.21;100681.66;10392213;28;20517;-64
2021/09/23 01:18:39;;;;;;;12.93;4.22;;;;;;;8.93;64.45;100667.88;10393259;28;20490;-64
2021/09/23 01:23:44;;;;;;;46.88;4.32;;;;;;;9.07;64.58;100670.75;10391984;28;20062;-64
2021/09/23 01:28:46;;;;;;;214.88;7.50;;;;;;;9.21;64.55;100668.41;10393098;28;20069;-64
2021/09/23 01:33:48;;;;;;;120.32;6.65;;;;;;;9.38;64.42;100647.69;10393421;28;20076;-64
2021/09/23 01:38:51;;;;;;;30.42;4.65;;;;;;;9.55;64.09;100638.19;10393251;28;20135;-64
2021/09/23 01:43:53;;;;;;;18.90;4.10;;;;;;;9.65;63.96;100623.78;10392863;28;20057;-64
2021/09/23 01:48:55;;;;;;;451.17;12.23;;;;;;;9.53;64.04;100611.28;10392535;28;20065;-64
2021/09/23 01:53:56;;;;;;;443.05;12.07;;;;;;;9.49;64.56;100620.19;10392214;28;20678;-64
2021/09/23 01:58:58;;;;;;;68.35;5.68;;;;;;;9.59;64.45;100605.78;10392067;28;20506;-64
2021/09/23 02:04:00;;;;;;;35.60;4.70;;;;;;;9.72;64.37;100595.69;10392359;28;20054;-64
2021/09/23 02:09:02;;;;;;;175.85;7.65;;;;;;;9.68;64.26;100603.72;10392553;28;20124;-64
2021/09/23 02:14:04;;;;;;;381.02;11.07;;;;;;;9.57;64.38;100601.53;10391925;28;20501;-64
2021/09/23 02:19:06;;;;;;;206.48;7.53;;;;;;;9.62;64.63;100597.84;10391988;28;20045;-65
2021/09/23 02:24:08;;;;;;;162.50;6.72;;;;;;;9.78;64.47;100604.97;10391955;28;20541;-64
2021/09/23 02:29:09;;;;;;;172.43;7.72;;;;;;;9.86;64.13;100589.81;10394212;28;20053;-64
2021/09/23 02:34:12;;;;;;;209.00;8.85;;;;;;;9.88;64.26;100582.75;10399692;28;20093;-64
2021/09/23 02:39:14;;;;;;;315.77;9.45;;;;;;;9.88;64.05;100556.63;10400091;28;20053;-64
2021/09/23 02:44:16;;;;;;;152.27;7.00;;;;;;;9.80;64.33;100571.81;10398963;28;20065;-64
2021/09/23 02:49:18;;;;;;;420.13;12.73;;;;;;;9.79;64.10;100573.56;10399031;28;20510;-64
2021/09/23 02:54:19;;;;;;;132.40;6.63;;;;;;;9.86;64.24;100563.69;10399137;28;20066;-64
2021/09/23 02:59:21;;;;;;;203.32;7.40;;;;;;;9.77;64.44;100545.84;10398594;28;20088;-64
2021/09/23 03:04:23;;;;;;;231.23;8.40;;;;;;;9.73;64.62;100547.72;10398386;28;20333;-64
2021/09/23 03:09:24;;;;;;;202.68;7.55;;;;;;;9.63;64.77;100531.59;10398399;28;20581;-64
2021/09/23 03:14:26;;;;;;;221.75;7.65;;;;;;;9.61;64.35;100528.22;10398104;28;20053;-64
2021/09/23 03:19:28;;;;;;;311.95;9.60;;;;;;;9.58;64.54;100517.91;10398491;28;20057;-64
2021/09/23 03:24:30;;;;;;;113.47;5.47;;;;;;;9.58;64.59;100511.84;10397921;28;20445;-64
2021/09/23 03:29:31;;;;;;;473.55;12.90;;;;;;;9.49;64.27;100505.28;10396241;28;20053;-64
2021/09/23 03:34:33;;;;;;;284.42;10.30;;;;;;;9.48;64.45;100500.16;10397410;28;20111;-64
2021/09/23 03:39:35;;;;;;;163.32;7.13;;;;;;;9.53;64.44;100493.78;10396221;28;20158;-64
2021/09/23 03:44:37;;;;;;;122.15;6.38;;;;;;;9.53;64.61;100485.09;10397045;28;20061;-64
2021/09/23 03:49:39;;;;;;;175.68;7.75;;;;;;;9.49;64.48;100487.00;10395418;28;20068;-64
2021/09/23 03:54:40;;;;;;;55.83;5.20;;;;;;;9.49;64.89;100487.00;10396851;28;20509;-64
2021/09/23 03:59:42;;;;;;;237.90;9.20;;;;;;;9.47;64.60;100485.38;10396284;28;20498;-64
2021/09/23 04:04:44;;;;;;;140.40;6.60;;;;;;;9.52;64.24;100486.84;10396452;28;20061;-64
2021/09/23 04:09:46;;;;;;;102.50;6.47;;;;;;;9.54;64.11;100484.19;10396343;28;20053;-64
2021/09/23 04:14:48;;;;;;;249.18;10.40;;;;;;;9.47;63.85;100477.56;10395931;28;20398;-65
2021/09/23 04:19:50;;;;;;;253.05;10.25;;;;;;;9.32;64.47;100479.09;10394681;28;20314;-65
2021/09/23 04:24:52;;;;;;;260.95;11.05;;;;;;;9.25;64.64;100475.09;10395846;28;20155;-65
2021/09/23 04:29:54;;;;;;;11.40;4.70;;;;;;;9.22;65.20;100472.63;10395272;28;20061;-65
2021/09/23 04:34:55;;;;;;;552.83;18.65;;;;;;;9.26;64.34;100468.13;10395102;28;20143;-65
2021/09/23 04:39:57;;;;;;;211.63;9.05;;;;;;;9.10;64.78;100460.13;10393561;28;20142;-65
2021/09/23 04:44:59;;;;;;;698.95;23.80;;;;;;;9.00;64.70;100453.63;10395135;28;20139;-66
2021/09/23 04:50:00;;;;;;;156.02;8.57;;;;;;;8.95;65.43;100437.34;10394375;28;20438;-65
2021/09/23 04:55:03;;;;;;;97.18;6.88;;;;;;;9.04;65.06;100431.69;10394742;28;20061;-66
2021/09/23 05:00:06;;;;;;;313.08;10.95;;;;;;;8.96;65.18;100433.81;10394417;28;20088;-65
2021/09/23 05:05:08;;;;;;;136.50;7.15;;;;;;;9.02;64.66;100433.53;10394343;28;20100;-65
2021/09/23 05:10:10;;;;;;;189.93;8.15;;;;;;;9.05;64.42;100433.41;10394021;28;20323;-66
2021/09/23 05:15:12;;;;;;;127.88;6.28;;;;;;;9.05;64.42;100440.38;10392039;28;20069;-65
2021/09/23 05:20:15;;;;;;;38.53;4.40;;;;;;;9.12;64.32;100454.81;10392519;28;20054;-65
2021/09/23 05:25:16;;;;;;;200.82;7.78;;;;;;;9.17;64.18;100451.13;10393900;28;20057;-66
2021/09/23 05:30:18;;;;;;;202.77;7.55;;;;;;;9.17;64.17;100455.47;10393498;28;20057;-66
2021/09/23 05:35:20;;;;;;;79.68;5.82;;;;;;;9.18;64.15;100449.34;10393711;28;20060;-65
2021/09/23 05:40:22;;;;;;;253.90;8.75;;;;;;;9.07;64.13;100454.22;10392563;28;20060;-66
2021/09/23 05:45:24;;;;;;;75.40;4.95;;;;;;;9.16;63.97;100444.19;10393223;28;20084;-65
2021/09/23 05:50:26;;;;;;;43.33;4.03;;;;;;;9.21;63.79;100449.19;10393140;28;20085;-66
2021/09/23 05:55:29;;;;;;;167.80;6.25;;;;;;;9.19;63.57;100453.66;10392683;28;20521;-65
2021/09/23 06:00:31;;;;;;;37.78;4.32;;;;;;;9.28;63.33;100453.25;10392638;28;20498;-66
2021/09/23 06:05:33;;;;;;;34.50;4.30;;;;;;;9.24;63.07;100470.78;10397373;28;20061;-65
2021/09/23 06:10:35;;;;;;;31.77;4.28;;;;;;;9.23;63.25;100476.06;10400976;28;20053;-66
2021/09/23 06:15:37;;;;;;;187.48;7.07;;;;;;;9.36;63.08;100487.66;10400665;28;20053;-66
2021/09/23 06:20:43;;;;;;;400.45;11.70;;;;;;;9.38;62.87;100486.66;10400529;28;20050;-66
2021/09/23 06:25:45;;;;;;;22.23;5.50;;;;;;;9.35;63.78;100489.41;10400467;28;20064;-66
2021/09/23 06:30:47;;;;;;;377.95;11.82;;;;;;;9.58;62.80;100476.13;10400015;28;20065;-65
2021/09/23 06:35:50;;;;;;;56.15;5.68;;;;;;;9.69;62.74;100472.22;10399650;28;20061;-65
2021/09/23 06:40:55;;;;;;;322.30;9.93;;;;;;;10.01;61.67;100450.59;10399780;28;20391;-66
2021/09/23 06:45:57;;;;;;;670.50;21.27;;;;;;;9.88;61.45;100458.19;10400321;28;20316;-66
2021/09/23 06:50:58;;;;;;;64.97;5.70;;;;;;;9.73;62.68;100453.69;10399382;28;20049;-65
2021/09/23 06:56:00;;;;;;;168.20;8.68;;;;;;;10.21;61.67;100455.69;10399176;28;20138;-65
2021/09/23 07:01:03;;;;;;;233.65;9.00;;;;;;;10.14;61.38;100456.91;10398833;28;20513;-65
2021/09/23 07:06:05;;;;;;;355.50;11.88;;;;;;;10.35;61.25;100440.16;10397754;28;20167;-65
2021/09/23 07:11:07;;;;;;;29.67;4.35;;;;;;;10.45;61.33;100444.00;10398805;28;20089;-65
2021/09/23 07:16:09;;;;;;;486.30;14.68;;;;;;;10.86;60.02;100440.09;10397942;28;20119;-65
2021/09/23 07:21:11;;;;;;;167.32;7.40;;;;;;;11.19;59.68;100438.28;10398034;28;20509;-64
2021/09/23 07:26:16;;;;;;;339.95;12.05;;;;;;;11.34;58.76;100435.78;10397892;28;20155;-64
2021/09/23 07:31:18;;;;;;;88.68;6.28;;;;;;;11.07;59.57;100420.63;10398041;28;20088;-65
2021/09/23 07:36:20;;;;;;;65.63;6.15;;;;;;;11.32;59.50;100419.31;10397939;28;20053;-64
2021/09/23 07:41:22;;;;;;;88.63;6.50;;;;;;;11.60;59.20;100416.84;10397242;28;20057;-65
2021/09/23 07:46:24;;;;;;;78.47;6.97;;;;;;;12.01;57.97;100412.69;10397498;28;20057;-65
2021/09/23 07:51:26;;;;;;;34.97;6.55;;;;;;;12.70;56.75;100403.28;10397126;28;20054;-65
2021/09/23 07:56:28;;;;;;;99.93;7.95;;;;;;;12.71;56.56;100405.00;10396827;28;20093;-65
2021/09/23 08:01:30;;;;;;;20.58;6.35;;;;;;;12.65;57.12;100412.38;10396883;28;20056;-65
2021/09/23 08:06:32;;;;;;;54.20;6.90;;;;;;;12.93;56.64;100417.63;10395335;28;20108;-65
2021/09/23 08:11:33;;;;;;;5.78;4.95;;;;;;;12.94;56.81;100401.78;10396093;28;20534;-65
2021/09/23 08:16:35;;;;;;;8.85;5.97;;;;;;;13.14;56.21;100389.19;10396010;28;20517;-65
2021/09/23 08:21:38;;;;;;;6.15;5.43;;;;;;;13.30;55.88;100382.88;10395638;28;20049;-65
2021/09/23 08:26:40;;;;;;;7.68;6.28;;;;;;;13.43;55.70;100372.47;10434527;28;20052;-65
2021/09/23 08:31:42;;;;;;;6.60;5.50;;;;;;;13.54;56.03;100369.97;10410654;28;20107;-65
2021/09/23 08:36:44;;;;;;;8.63;6.82;;;;;;;13.71;55.70;100370.59;10395205;28;20520;-65
2021/09/23 08:41:49;;;;;;;7.32;5.90;;;;;;;13.94;55.60;100373.47;10394481;28;20112;-65
2021/09/23 08:46:50;;;;;;;8.98;6.75;;;;;;;14.17;55.41;100368.34;10393619;28;20057;-65
2021/09/23 08:51:52;;;;;;;8.00;6.95;;;;;;;14.13;55.42;100363.38;10394325;28;20053;-65
2021/09/23 08:56:59;;;;;;;7.82;6.35;;;;;;;14.29;55.09;100364.03;10394665;28;20080;-65
2021/09/23 09:02:01;;;;;;;7.25;6.22;;;;;;;14.68;54.87;100366.59;10393848;28;20833;-65
2021/09/23 09:07:03;;;;;;;7.78;6.10;;;;;;;15.27;54.10;100364.97;10394069;28;20528;-65
2021/09/23 09:12:12;;;;;;;8.30;5.72;;;;;;;15.95;53.05;100362.59;10392669;28;20057;-65
2021/09/23 09:17:18;;;;;;;7.07;4.75;;;;;;;16.48;51.97;100367.28;10393470;28;20140;-65
2021/09/23 09:22:24;;;;;;;7.60;4.72;;;;;;;16.63;51.75;100344.16;10392323;28;20053;-65
2021/09/23 09:27:29;;;;;;;6.43;4.80;;;;;;;16.59;52.16;100321.56;10393330;28;20052;-65
2021/09/23 09:32:36;;;;;;;6.53;4.90;;;;;;;17.08;51.73;100300.84;10392152;28;20146;-65
2021/09/23 09:37:43;;;;;;;8.98;4.20;;;;;;;17.40;51.54;100282.41;10393013;28;20076;-65
2021/09/23 09:42:49;;;;;;;5.45;3.15;;;;;;;17.57;51.16;100271.25;10393373;28;20079;-65
2021/09/23 09:47:54;;;;;;;5.20;2.60;;;;;;;18.05;50.27;100253.91;10392911;28;20076;-65
2021/09/23 09:52:57;;;;;;;5.28;2.25;;;;;;;18.37;48.72;100240.56;10401007;28;20532;-65
2021/09/23 09:58:00;;;;;;;4.30;2.40;;;;;;;18.67;48.55;100221.97;10433329;28;20468;-65
2021/09/23 10:03:03;;;;;;;3.13;1.80;;;;;;;19.01;46.27;100215.31;10433956;28;20052;-65
2021/09/23 10:08:07;;;;;;;3.60;1.88;;;;;;;19.19;43.69;100195.16;10433683;28;20053;-65
2021/09/23 10:13:10;;;;;;;3.10;1.95;;;;;;;19.27;42.91;100181.19;10433208;28;20124;-65
2021/09/23 10:18:11;;;;;;;7.97;2.00;;;;;;;19.43;42.77;100166.38;10433131;28;20065;-65
2021/09/23 10:23:13;;;;;;;4.30;2.10;;;;;;;19.61;42.51;100166.47;10433153;28;20089;-65
2021/09/23 10:28:15;;;;;;;3.00;1.90;;;;;;;19.95;41.90;100157.03;10433220;28;20493;-65
2021/09/23 10:33:17;;;;;;;5.10;2.10;;;;;;;20.01;41.67;100155.63;10394257;28;20423;-63
2021/09/23 10:38:20;;;;;;;4.05;2.00;;;;;;;20.14;41.20;100145.47;10391986;28;20062;-65
2021/09/23 10:43:22;;;;;;;3.80;2.00;;;;;;;20.05;40.58;100131.25;10391613;28;20099;-65
2021/09/23 10:48:24;;;;;;;4.32;1.90;;;;;;;20.00;40.72;100148.63;10391798;28;20144;-65
2021/09/23 10:53:25;;;;;;;3.85;1.92;;;;;;;19.92;40.87;100137.91;10398647;28;20532;-63
2021/09/23 10:58:29;;;;;;;4.05;2.00;;;;;;;20.01;40.26;100140.50;10399052;28;20068;-63
2021/09/23 11:03:36;;;;;;;5.22;2.00;;;;;;;20.02;40.63;100120.94;10399079;28;20568;-63
2021/09/23 11:08:47;;;;;;;6.65;2.25;;;;;;;20.07;40.46;100123.19;10398932;28;20049;-63
2021/09/23 11:13:50;;;;;;;3.92;2.00;;;;;;;20.40;40.04;100129.69;10399216;28;20062;-64
2021/09/23 11:18:53;;;;;;;11.02;1.98;;;;;;;20.55;39.72;100112.25;10398544;28;20406;-64
2021/09/23 11:24:00;;;;;;;3.03;1.85;;;;;;;20.60;38.95;100104.69;10398202;28;20065;-64
2021/09/23 11:29:02;;;;;;;3.38;2.10;;;;;;;20.65;39.18;100097.09;10398157;28;20049;-64
2021/09/23 11:34:04;;;;;;;4.00;2.03;;;;;;;20.74;39.54;100090.88;10397676;28;20464;-64
2021/09/23 11:39:06;;;;;;;3.92;2.00;;;;;;;20.93;38.46;100096.84;10397716;28;20057;-64
2021/09/23 11:44:22;;;;;;;3.28;2.13;;;;;;;20.95;37.50;100096.69;10397412;28;20620;-63
2021/09/23 11:49:24;;;;;;;3.10;2.00;;;;;;;21.11;37.59;100080.06;10397500;28;20092;-63
2021/09/23 11:54:26;;;;;;;3.85;1.90;;;;;;;21.26;37.01;100070.50;10397248;28;20057;-64
2021/09/23 11:59:29;;;;;;;2.70;1.60;;;;;;;21.33;36.36;100058.28;10397349;28;20079;-65
2021/09/23 12:04:32;;;;;;;4.53;1.60;;;;;;;21.52;35.60;100040.25;10395805;28;20053;-65
2021/09/23 12:09:34;;;;;;;4.40;1.90;;;;;;;21.56;35.36;100032.78;10396549;28;20107;-65
2021/09/23 12:14:36;;;;;;;4.53;1.67;;;;;;;21.64;35.33;100024.88;10396684;28;20061;-65
2021/09/23 12:19:37;;;;;;;4.68;1.70;;;;;;;21.79;34.70;100015.25;10396394;28;20088;-64
2021/09/23 12:24:39;;;;;;;2.60;1.50;;;;;;;21.92;34.22;100008.47;10396456;28;20061;-64
2021/09/23 12:29:41;;;;;;;2.85;1.63;;;;;;;22.23;34.74;99997.28;10396482;28;20059;-64
2021/09/23 12:34:47;;;;;;;4.25;1.60;;;;;;;22.48;34.37;99991.78;10395114;28;20137;-64
2021/09/23 12:39:49;;;;;;;2.58;1.50;;;;;;;22.57;33.58;99987.28;10395841;28;20061;-64
2021/09/23 12:44:55;;;;;;;3.67;1.75;;;;;;;22.70;33.35;99980.44;10395310;28;20061;-64
2021/09/23 12:50:01;;;;;;;2.67;1.50;;;;;;;22.80;33.34;99979.50;10394428;28;20137;-64
2021/09/23 12:55:23;;;;;;;3.72;1.50;;;;;;;22.82;32.86;99969.47;10394516;28;20088;-64
2021/09/23 13:00:31;;;;;;;2.38;1.65;;;;;;;22.90;33.09;99964.13;10392739;28;20445;-64
2021/09/23 13:05:35;;;;;;;3.05;1.50;;;;;;;22.88;32.87;99966.94;10394077;28;20148;-63
2021/09/23 13:10:37;;;;;;;4.13;1.73;;;;;;;22.91;33.21;99952.44;10393705;28;20092;-64
2021/09/23 13:15:39;;;;;;;2.65;1.67;;;;;;;22.76;33.38;99962.16;10393356;28;20061;-64
2021/09/23 13:20:44;;;;;;;4.45;1.60;;;;;;;22.86;34.27;99954.81;10393512;28;20086;-63
2021/09/23 13:25:51;;;;;;;2.20;1.40;;;;;;;22.92;34.17;99944.31;10393626;28;20115;-64
2021/09/23 13:30:54;;;;;;;4.97;1.83;;;;;;;22.97;34.21;99933.94;10393390;28;20057;-63
2021/09/23 13:35:57;;;;;;;3.45;1.60;;;;;;;22.96;34.14;99937.63;10392958;28;20819;-64
2021/09/23 13:41:00;;;;;;;4.00;1.83;;;;;;;23.01;34.13;99929.09;10393033;28;20116;-63
2021/09/23 13:46:03;;;;;;;2.80;1.73;;;;;;;23.02;34.54;99920.94;10392767;28;20501;-63
2021/09/23 13:51:06;;;;;;;3.78;1.88;;;;;;;22.97;34.63;99912.59;10392719;28;20061;-63
2021/09/23 13:56:08;;;;;;;3.90;1.70;;;;;;;22.99;34.78;99909.75;10392780;28;20405;-64
2021/09/23 14:01:10;;;;;;;3.63;1.70;;;;;;;23.20;34.97;99896.69;10392428;28;20060;-64
2021/09/23 14:06:12;;;;;;;3.45;1.90;;;;;;;23.41;34.73;99889.75;10433300;28;20053;-64
2021/09/23 14:11:15;;;;;;;4.38;1.70;;;;;;;23.48;34.64;99877.41;10432985;28;20432;-64
2021/09/23 14:16:17;;;;;;;4.20;1.80;;;;;;;23.55;34.86;99871.34;10433017;28;20061;-64
2021/09/23 14:21:19;;;;;;;3.10;1.80;;;;;;;23.48;34.73;99874.72;10391902;28;20053;-64
2021/09/23 14:26:26;;;;;;;2.63;1.70;;;;;;;23.65;35.13;99872.78;10396769;28;20049;-64
2021/09/23 14:31:28;;;;;;;4.35;1.80;;;;;;;23.54;35.70;99865.19;10399936;28;20085;-64
2021/09/23 14:36:30;;;;;;;4.57;1.90;;;;;;;23.59;35.41;99862.81;10399805;28;20108;-64
2021/09/23 14:41:32;;;;;;;6.65;2.47;;;;;;;23.68;35.10;99861.75;10399739;28;20100;-64
2021/09/23 14:46:34;;;;;;;7.40;2.03;;;;;;;23.61;35.23;99846.63;10397835;28;20139;-64
2021/09/23 14:51:36;;;;;;;5.38;1.70;;;;;;;23.66;35.22;99850.41;10399317;28;20132;-64
2021/09/23 14:56:39;;;;;;;4.07;1.90;;;;;;;23.75;35.31;99849.34;10399142;28;20089;-64
2021/09/23 15:01:45;;;;;;;4.40;1.85;;;;;;;23.75;35.20;99846.69;10399040;28;20084;-64
2021/09/23 15:06:48;;;;;;;4.18;1.90;;;;;;;23.48;35.40;99842.69;10398520;28;20115;-64
2021/09/23 15:11:52;;;;;;;4.32;2.08;;;;;;;23.38;35.83;99842.06;10398863;28;20049;-64
2021/09/23 15:17:04;;;;;;;3.72;2.10;;;;;;;23.31;36.08;99834.91;10398332;28;20061;-63
2021/09/23 15:22:05;;;;;;;5.63;2.08;;;;;;;23.30;36.56;99814.56;10398152;28;20488;-64
2021/09/23 15:27:07;;;;;;;6.47;2.17;;;;;;;23.34;36.38;99813.22;10398026;28;20057;-63
2021/09/23 15:32:09;;;;;;;4.90;1.90;;;;;;;23.41;36.44;99814.22;10398204;28;20085;-63
2021/09/23 15:37:11;;;;;;;4.25;1.90;;;;;;;23.26;36.73;99821.28;10397011;28;20505;-65
2021/09/23 15:42:13;;;;;;;3.70;2.20;;;;;;;23.04;37.25;99812.22;10397401;28;20133;-63
2021/09/23 15:47:14;;;;;;;3.45;1.90;;;;;;;22.90;37.61;99817.44;10397537;28;20080;-63
2021/09/23 15:52:16;;;;;;;3.38;1.98;;;;;;;22.81;37.90;99816.66;10396969;28;20057;-63
2021/09/23 15:57:18;;;;;;;4.50;2.10;;;;;;;22.65;38.06;99806.84;10396903;28;20127;-63
2021/09/23 16:02:21;;;;;;;7.35;2.00;;;;;;;22.52;38.32;99819.88;10395545;28;20307;-63
2021/09/23 16:07:23;;;;;;;5.00;2.00;;;;;;;22.33;38.82;99827.41;10396265;28;20148;-63
2021/09/23 16:12:26;;;;;;;3.65;1.98;;;;;;;22.06;39.48;99836.59;10396359;28;20137;-63
2021/09/23 16:17:27;;;;;;;5.10;2.10;;;;;;;21.85;39.58;99841.53;10396097;28;20049;-63
2021/09/23 16:22:29;;;;;;;6.95;2.22;;;;;;;21.71;40.22;99842.19;10394668;28;20104;-63
2021/09/23 16:27:31;;;;;;;6.55;1.98;;;;;;;21.43;41.08;99849.66;10395636;28;20532;-63
2021/09/23 16:32:33;;;;;;;3.38;2.00;;;;;;;21.32;41.09;99857.06;10395395;28;20739;-63
2021/09/23 16:37:35;;;;;;;5.45;1.80;;;;;;;21.09;39.47;99870.09;10395115;28;20057;-63
2021/09/23 16:42:37;;;;;;;4.70;1.80;;;;;;;20.81;37.78;99872.13;10394946;28;20087;-63
2021/09/23 16:47:43;;;;;;;4.28;1.90;;;;;;;20.62;37.07;99875.00;10394004;28;20527;-63
2021/09/23 16:52:46;;;;;;;4.10;1.80;;;;;;;20.34;38.29;99870.00;10394831;28;20087;-63
2021/09/23 16:57:48;;;;;;;4.55;1.92;;;;;;;20.08;38.20;99885.88;10435494;28;20060;-63
2021/09/23 17:02:49;;;;;;;4.53;1.85;;;;;;;19.89;38.74;99888.66;10435062;28;20118;-63
2021/09/23 17:07:51;;;;;;;4.28;2.03;;;;;;;19.63;38.69;99887.72;10395059;28;20497;-62
2021/09/23 17:12:55;;;;;;;5.10;2.00;;;;;;;19.43;39.39;99889.69;10393846;28;20421;-63
2021/09/23 17:17:56;;;;;;;4.53;2.00;;;;;;;19.23;40.28;99883.66;10393626;28;20053;-63
2021/09/23 17:23:01;;;;;;;4.80;2.40;;;;;;;19.02;40.36;99890.16;10393241;28;20085;-63
2021/09/23 17:28:03;;;;;;;6.15;2.30;;;;;;;18.86;40.69;99888.09;10393095;28;20428;-63
2021/09/23 17:33:05;;;;;;;4.65;2.20;;;;;;;18.70;41.81;99900.28;10393293;28;20315;-64
2021/09/23 17:38:20;;;;;;;5.97;2.35;;;;;;;18.58;42.01;99907.59;10393158;28;20394;-64
2021/09/23 17:43:22;;;;;;;5.57;2.35;;;;;;;18.43;42.37;99901.03;10392694;28;20065;-64
2021/09/23 17:48:24;;;;;;;4.25;2.13;;;;;;;18.26;42.83;99907.09;10391630;28;20131;-65
2021/09/23 17:53:25;;;;;;;4.97;2.20;;;;;;;18.21;43.34;99919.88;10392423;28;20050;-64
2021/09/23 17:58:29;;;;;;;6.78;2.20;;;;;;;18.13;43.27;99912.63;10391844;28;20096;-64
2021/09/23 18:03:36;;;;;;;5.65;2.45;;;;;;;18.10;43.61;99912.88;10392286;28;20115;-64
2021/09/23 18:08:38;;;;;;;6.05;2.60;;;;;;;17.99;43.36;99909.56;10392106;28;20101;-64
2021/09/23 18:13:40;;;;;;;4.25;2.40;;;;;;;17.91;43.72;99918.19;10392329;28;20069;-64
2021/09/23 18:18:42;;;;;;;5.95;3.33;;;;;;;17.83;44.33;99926.00;10392455;28;20154;-65
2021/09/23 18:23:43;;;;;;;6.53;2.70;;;;;;;17.75;44.20;99923.19;10392601;28;20065;-65
2021/09/23 18:28:45;;;;;;;6.15;2.90;;;;;;;17.68;44.51;99930.00;10391928;28;20411;-64
2021/09/23 18:33:47;;;;;;;6.00;2.88;;;;;;;17.69;44.71;99935.13;10391934;28;20053;-63
2021/09/23 18:38:49;;;;;;;5.13;2.60;;;;;;;17.66;45.25;99929.28;10391781;28;20469;-65
2021/09/23 18:43:51;;;;;;;9.32;3.17;;;;;;;17.78;45.33;99928.19;10391728;28;20089;-63
2021/09/23 18:48:53;;;;;;;6.97;3.00;;;;;;;17.87;45.09;99931.84;10391677;28;20139;-63
2021/09/23 18:53:54;;;;;;;5.78;2.95;;;;;;;17.99;45.15;99920.13;10391250;28;20057;-63
2021/09/23 18:58:56;;;;;;;5.30;2.72;;;;;;;18.14;45.04;99921.38;10391463;28;20135;-63
2021/09/23 19:03:58;;;;;;;9.80;2.85;;;;;;;18.24;44.57;99914.31;10391347;28;20076;-63
2021/09/23 19:09:00;;;;;;;6.93;2.72;;;;;;;18.24;44.79;99909.84;10390904;28;20049;-63
2021/09/23 19:14:02;;;;;;;6.10;2.90;;;;;;;18.16;44.79;99906.19;10397337;28;20088;-64
2021/09/23 19:19:04;;;;;;;5.43;2.78;;;;;;;18.01;45.22;99897.03;10398080;28;20072;-63
2021/09/23 19:24:06;;;;;;;6.18;2.45;;;;;;;17.79;45.51;99898.13;10397902;28;20057;-63
2021/09/23 19:29:08;;;;;;;6.57;2.78;;;;;;;17.70;45.47;99904.25;10396477;28;20061;-63
2021/09/23 19:34:10;;;;;;;8.18;2.83;;;;;;;17.62;46.03;99910.22;10397854;28;20434;-63
2021/09/23 19:39:12;;;;;;;5.30;2.80;;;;;;;17.50;46.35;99919.25;10397361;28;20057;-63
2021/09/23 19:44:14;;;;;;;7.20;3.00;;;;;;;17.46;46.31;99920.50;10397439;28;20056;-63
2021/09/23 19:49:16;;;;;;;7.75;2.85;;;;;;;17.35;46.62;99931.16;10397277;28;20053;-63
2021/09/23 19:54:18;;;;;;;7.40;2.85;;;;;;;17.24;46.86;99938.34;10397128;28;20061;-64
2021/09/23 19:59:21;;;;;;;6.78;3.40;;;;;;;17.14;47.25;99943.56;10397424;28;20085;-63
2021/09/23 20:04:23;;;;;;;7.00;2.85;;;;;;;17.04;47.79;99947.97;10396478;28;20056;-63
2021/09/23 20:09:26;;;;;;;7.93;2.80;;;;;;;16.98;47.64;99943.22;10395972;28;20528;-63
2021/09/23 20:14:28;;;;;;;6.97;2.70;;;;;;;16.95;48.08;99948.78;10396100;28;20127;-63
2021/09/23 20:19:30;;;;;;;6.65;2.58;;;;;;;16.86;48.48;99957.47;10395785;28;20081;-63
2021/09/23 20:24:31;;;;;;;7.28;2.92;;;;;;;16.86;48.56;99960.97;10394688;28;20049;-63
2021/09/23 20:29:33;;;;;;;7.85;2.80;;;;;;;16.90;48.47;99974.72;10396006;28;20089;-63
2021/09/23 20:34:35;;;;;;;5.10;2.80;;;;;;;16.89;48.62;99983.63;10395124;28;20465;-63
2021/09/23 20:39:37;;;;;;;6.43;2.83;;;;;;;16.76;48.85;99978.56;10394848;28;20058;-63
2021/09/23 20:44:39;;;;;;;4.90;2.55;;;;;;;16.67;49.50;99978.50;10394116;28;20050;-63
2021/09/23 20:49:40;;;;;;;7.55;2.92;;;;;;;16.61;49.56;99977.19;10395295;28;20089;-63
2021/09/23 20:54:43;;;;;;;7.82;2.60;;;;;;;16.62;49.79;99983.31;10394312;28;20061;-63
2021/09/23 20:59:52;;;;;;;5.88;2.58;;;;;;;16.63;50.18;99985.00;10394402;28;20057;-63
2021/09/23 21:04:54;;;;;;;7.53;2.93;;;;;;;16.49;50.37;99993.25;10394111;28;20084;-63
2021/09/23 21:09:56;;;;;;;6.28;2.85;;;;;;;16.49;50.89;99993.25;10393622;28;20061;-63
2021/09/23 21:14:58;;;;;;;6.20;2.60;;;;;;;16.40;51.53;99996.59;10393695;28;20056;-63
2021/09/23 21:20:00;;;;;;;7.85;2.92;;;;;;;16.40;51.54;100007.16;10393470;28;20417;-63
2021/09/23 21:25:02;;;;;;;6.57;2.85;;;;;;;16.27;52.10;100009.97;10393721;28;20225;-63
2021/09/23 21:30:04;;;;;;;7.00;3.20;;;;;;;16.11;52.58;100015.66;10391640;28;20061;-63
2021/09/23 21:35:07;;;;;;;5.75;2.83;;;;;;;16.09;52.84;100011.47;10393012;28;20480;-63
2021/09/23 21:40:18;;;;;;;6.72;3.03;;;;;;;16.06;53.42;100017.00;10391682;28;20631;-64
2021/09/23 21:45:20;;;;;;;5.70;2.97;;;;;;;16.23;52.94;100013.81;10391829;28;20081;-63
2021/09/23 21:50:23;;;;;;;7.38;2.80;;;;;;;16.46;53.03;100027.81;10392607;28;20418;-64
2021/09/23 21:55:25;;;;;;;6.47;3.05;;;;;;;16.55;52.82;100022.59;10392799;28;20120;-63
2021/09/23 22:00:38;;;;;;;6.40;2.72;;;;;;;16.65;52.83;100022.69;10392171;28;20410;-63
2021/09/23 22:05:41;;;;;;;6.40;2.60;;;;;;;16.79;52.57;100032.94;10392238;28;20057;-63
2021/09/23 22:10:43;;;;;;;7.88;2.72;;;;;;;16.89;52.59;100034.69;10391810;28;20049;-63
2021/09/23 22:15:45;;;;;;;5.05;2.72;;;;;;;16.97;52.32;100031.38;10391836;28;20081;-63
2021/09/23 22:20:47;;;;;;;7.75;2.70;;;;;;;16.99;51.89;100029.44;10392008;28;20498;-63
2021/09/23 22:25:48;;;;;;;4.03;2.60;;;;;;;17.03;52.00;100023.78;10391991;28;20076;-63
2021/09/23 22:30:50;;;;;;;5.18;2.90;;;;;;;17.00;51.92;100031.09;10391928;28;20338;-63
2021/09/23 22:35:52;;;;;;;6.35;3.10;;;;;;;17.00;52.04;100026.66;10391831;28;20516;-63
2021/09/23 22:40:54;;;;;;;8.73;3.00;;;;;;;16.98;52.15;100033.03;10391457;28;20057;-63
2021/09/23 22:45:56;;;;;;;6.40;2.97;;;;;;;17.03;52.11;100026.41;10393162;28;20049;-63
2021/09/23 22:50:58;;;;;;;5.82;3.10;;;;;;;17.17;52.05;100030.53;10399461;28;20140;-63
2021/09/23 22:55:59;;;;;;;7.13;3.05;;;;;;;17.18;52.19;100023.44;10399549;28;20135;-63
2021/09/23 23:01:02;;;;;;;9.18;3.30;;;;;;;17.22;52.48;100015.09;10399129;28;20197;-63
2021/09/23 23:06:04;;;;;;;6.38;2.95;;;;;;;17.19;52.50;100022.47;10398786;28;20056;-63
2021/09/23 23:11:06;;;;;;;7.18;3.30;;;;;;;17.17;52.46;100019.09;10398567;28;20069;-63
2021/09/23 23:16:07;;;;;;;8.13;3.22;;;;;;;17.21;52.66;100021.38;10398726;28;20378;-63